Time;durP1;ratioP1;P1;durP2;ratioP2;P2;SDS_P1;SDS_P2;PMS_P1;PMS_P2;Temp;Humidity;BMP_temperature;BMP_pressure;BME280_temperature;BME280_humidity;BME280_pressure;Samples;Min_cycle;Max_cycle;Signal;HPM_P1;HPM_P2
2023/08/05 00:01:07;;;;;;;4.85;2.63;;;14.70;99.90;;;;;;5058022;28;20207;-80
2023/08/05 00:03:33;;;;;;;4.18;2.40;;;14.70;99.90;;;;;;5058408;28;20230;-80
2023/08/05 00:06:00;;;;;;;4.22;2.55;;;14.70;99.90;;;;;;5058262;28;20267;-80
2023/08/05 00:08:27;;;;;;;5.82;2.38;;;14.60;99.90;;;;;;5062923;28;20226;-80
2023/08/05 00:10:54;;;;;;;3.70;2.53;;;14.50;99.90;;;;;;5053115;28;20215;-81
2023/08/05 00:13:22;;;;;;;3.40;2.90;;;14.60;99.90;;;;;;5054023;28;20234;-80
2023/08/05 00:15:51;;;;;;;3.55;2.40;;;14.50;99.90;;;;;;5054500;28;20291;-79
2023/08/05 00:18:17;;;;;;;5.97;3.20;;;14.50;99.90;;;;;;5054981;28;20230;-80
2023/08/05 00:20:44;;;;;;;2.97;2.28;;;14.40;99.90;;;;;;5055625;28;20207;-80
2023/08/05 00:23:11;;;;;;;3.08;2.63;;;14.50;99.90;;;;;;5057222;28;20208;-81
2023/08/05 00:25:38;;;;;;;4.18;2.80;;;14.30;99.90;;;;;;5061787;28;20539;-79
2023/08/05 00:28:05;;;;;;;5.82;3.00;;;14.40;99.90;;;;;;5044624;28;20235;-80
2023/08/05 00:30:33;;;;;;;3.10;2.70;;;14.20;99.90;;;;;;5056459;28;20290;-79
2023/08/05 00:33:01;;;;;;;5.80;3.00;;;14.30;99.90;;;;;;5057608;28;20684;-80
2023/08/05 00:35:28;;;;;;;3.95;2.63;;;14.40;99.90;;;;;;5054527;28;20620;-80
2023/08/05 00:37:55;;;;;;;6.85;2.95;;;14.50;99.90;;;;;;5054069;28;20227;-80
2023/08/05 00:40:21;;;;;;;6.95;3.25;;;14.50;99.90;;;;;;5053349;28;20242;-80
2023/08/05 00:42:48;;;;;;;6.85;2.95;;;14.50;99.90;;;;;;5052573;28;20202;-80
2023/08/05 00:45:17;;;;;;;4.85;2.83;;;14.50;99.90;;;;;;5053831;28;20723;-80
2023/08/05 00:47:48;;;;;;;3.78;2.78;;;14.20;99.90;;;;;;5052660;28;20224;-80
2023/08/05 00:50:15;;;;;;;5.63;3.22;;;14.40;99.90;;;;;;5053316;28;20199;-80
2023/08/05 00:52:43;;;;;;;5.15;3.13;;;14.50;99.90;;;;;;5052552;28;20238;-79
2023/08/05 00:55:11;;;;;;;6.45;3.33;;;14.40;99.90;;;;;;5053194;28;20203;-79
2023/08/05 00:57:38;;;;;;;5.75;3.50;;;14.30;99.90;;;;;;5056592;28;20285;-79
2023/08/05 01:00:06;;;;;;;3.92;3.00;;;14.30;99.90;;;;;;5055919;28;20683;-80
2023/08/05 01:02:33;;;;;;;4.95;2.90;;;14.30;99.90;;;;;;5054554;28;20243;-80
2023/08/05 01:05:01;;;;;;;3.58;2.90;;;14.20;99.90;;;;;;5050078;28;20205;-79
2023/08/05 01:07:28;;;;;;;5.00;3.13;;;14.20;99.90;;;;;;5052876;28;20245;-80
2023/08/05 01:09:55;;;;;;;5.88;3.10;;;14.20;99.90;;;;;;5052809;28;20283;-79
2023/08/05 01:12:22;;;;;;;4.20;2.80;;;14.30;99.90;;;;;;5053104;28;20554;-80
2023/08/05 01:14:49;;;;;;;7.57;3.45;;;14.20;99.90;;;;;;5052694;28;20203;-79
2023/08/05 01:17:16;;;;;;;5.43;3.15;;;14.00;99.90;;;;;;5051618;28;20226;-80
2023/08/05 01:19:44;;;;;;;8.82;4.20;;;14.20;99.90;;;;;;5056416;28;20219;-79
2023/08/05 01:22:20;;;;;;;4.57;3.13;;;14.00;99.90;;;;;;5056565;28;20265;-80
2023/08/05 01:24:53;;;;;;;5.47;3.05;;;14.10;99.90;;;;;;5056048;28;20285;-79
2023/08/05 01:27:22;;;;;;;6.22;3.22;;;14.00;99.90;;;;;;5054574;28;20231;-79
2023/08/05 01:29:50;;;;;;;3.63;2.60;;;14.00;99.90;;;;;;5044195;28;20720;-78
2023/08/05 01:32:18;;;;;;;4.25;2.80;;;14.10;99.90;;;;;;5050732;28;20255;-79
2023/08/05 01:34:47;;;;;;;7.43;2.75;;;13.90;99.90;;;;;;5050374;28;20271;-79
2023/08/05 01:37:14;;;;;;;4.38;2.72;;;14.00;99.90;;;;;;5056341;28;20218;-80
2023/08/05 01:39:41;;;;;;;4.05;3.05;;;13.60;99.90;;;;;;5052096;28;20226;-80
2023/08/05 01:42:08;;;;;;;3.00;2.40;;;13.70;99.90;;;;;;5051494;28;20199;-80
2023/08/05 01:44:37;;;;;;;5.78;2.95;;;13.70;99.90;;;;;;5052748;28;20203;-79
2023/08/05 01:47:04;;;;;;;5.97;3.63;;;13.70;99.90;;;;;;5055019;28;20210;-79
2023/08/05 01:49:30;;;;;;;5.10;2.90;;;13.70;99.90;;;;;;5053122;28;20206;-80
2023/08/05 01:51:57;;;;;;;3.38;2.95;;;13.90;99.90;;;;;;5055507;28;20198;-79
2023/08/05 01:54:24;;;;;;;8.45;3.38;;;14.10;99.90;;;;;;5053043;28;20211;-80
2023/08/05 01:56:51;;;;;;;7.80;3.30;;;14.00;99.90;;;;;;5050053;28;20206;-80
2023/08/05 01:59:18;;;;;;;4.97;3.20;;;14.00;99.90;;;;;;5042220;28;20220;-79
2023/08/05 02:01:47;;;;;;;3.85;3.42;;;14.00;99.90;;;;;;5046475;28;20199;-80
2023/08/05 02:04:14;;;;;;;4.78;3.50;;;13.90;99.90;;;;;;5054076;28;20223;-79
2023/08/05 02:06:42;;;;;;;3.90;3.40;;;13.80;99.90;;;;;;5050846;28;20222;-79
2023/08/05 02:09:09;;;;;;;7.07;3.42;;;13.90;99.90;;;;;;5062002;28;20306;-79
2023/08/05 02:11:36;;;;;;;4.90;3.50;;;13.70;99.90;;;;;;5044118;28;20267;-80
2023/08/05 02:14:03;;;;;;;5.55;3.60;;;13.70;99.90;;;;;;5048140;28;20531;-79
2023/08/05 02:16:30;;;;;;;5.63;3.90;;;13.70;99.90;;;;;;5043954;28;20204;-80
2023/08/05 02:18:58;;;;;;;4.97;3.45;;;13.70;99.90;;;;;;5047497;28;20219;-79
2023/08/05 02:21:25;;;;;;;5.95;3.53;;;13.60;99.90;;;;;;5052884;28;20221;-80
2023/08/05 02:23:52;;;;;;;3.65;3.05;;;13.50;99.90;;;;;;5050104;28;20273;-79
2023/08/05 02:26:18;;;;;;;5.03;3.75;;;13.60;99.90;;;;;;5049714;28;20212;-79
2023/08/05 02:28:46;;;;;;;4.82;3.35;;;13.60;99.90;;;;;;5053739;28;20214;-80
2023/08/05 02:31:12;;;;;;;4.00;3.50;;;13.60;99.90;;;;;;5054013;28;20263;-79
2023/08/05 02:33:39;;;;;;;4.93;4.00;;;13.40;99.90;;;;;;5050375;28;20214;-80
2023/08/05 02:36:08;;;;;;;8.03;4.20;;;13.30;99.90;;;;;;5050798;28;20199;-80
2023/08/05 02:38:34;;;;;;;7.33;4.30;;;13.30;99.90;;;;;;5051345;28;20298;-80
2023/08/05 02:41:05;;;;;;;4.07;3.67;;;13.20;99.90;;;;;;5057366;28;20219;-80
2023/08/05 02:43:32;;;;;;;5.00;3.80;;;13.20;99.90;;;;;;5050457;28;20271;-80
2023/08/05 02:45:59;;;;;;;6.23;3.77;;;13.20;99.90;;;;;;5045796;28;20262;-80
2023/08/05 02:48:26;;;;;;;7.47;3.70;;;13.10;99.90;;;;;;5050944;28;20321;-81
2023/08/05 02:50:54;;;;;;;4.07;3.50;;;13.10;99.90;;;;;;5052810;28;20636;-81
2023/08/05 02:53:22;;;;;;;6.77;4.47;;;13.00;99.90;;;;;;5050332;28;20653;-80
2023/08/05 02:55:49;;;;;;;4.50;3.20;;;13.20;99.90;;;;;;5042702;28;20203;-79
2023/08/05 02:58:17;;;;;;;12.23;5.10;;;13.20;99.90;;;;;;5050676;28;20228;-80
2023/08/05 03:00:46;;;;;;;5.73;3.73;;;13.30;99.90;;;;;;5052029;28;20230;-80
2023/08/05 03:03:14;;;;;;;6.00;3.97;;;13.30;99.90;;;;;;5049389;28;20250;-80
2023/08/05 03:05:40;;;;;;;7.37;4.07;;;13.20;99.90;;;;;;5058167;28;20218;-79
2023/08/05 03:08:07;;;;;;;4.33;3.57;;;13.10;99.90;;;;;;5050208;28;20310;-80
2023/08/05 03:10:36;;;;;;;7.90;4.30;;;13.10;99.90;;;;;;5048151;28;20199;-79
2023/08/05 03:13:03;;;;;;;5.17;3.57;;;13.20;99.90;;;;;;5053575;28;20238;-79
2023/08/05 03:15:29;;;;;;;6.30;4.00;;;13.20;99.90;;;;;;5051452;28;20227;-81
2023/08/05 03:17:56;;;;;;;6.13;4.40;;;13.10;99.90;;;;;;5055644;28;20227;-79
2023/08/05 03:20:24;;;;;;;8.83;4.63;;;13.20;99.90;;;;;;5046982;28;20316;-80
2023/08/05 03:22:52;;;;;;;5.97;4.80;;;13.20;99.90;;;;;;5049680;28;20610;-80
2023/08/05 03:25:20;;;;;;;6.60;4.90;;;13.10;99.90;;;;;;5049990;28;20196;-80
2023/08/05 03:27:48;;;;;;;8.27;4.97;;;13.10;99.90;;;;;;5050296;28;20228;-79
2023/08/05 03:30:15;;;;;;;7.27;4.87;;;13.00;99.90;;;;;;5048610;28;20195;-80
2023/08/05 03:32:42;;;;;;;6.03;4.70;;;13.20;99.90;;;;;;5051099;28;20271;-79
2023/08/05 03:35:09;;;;;;;6.80;4.97;;;13.20;99.90;;;;;;5054008;28;20207;-80
2023/08/05 03:37:36;;;;;;;7.37;4.90;;;13.30;99.90;;;;;;5052295;28;20222;-80
2023/08/05 03:40:03;;;;;;;6.63;4.87;;;13.40;99.90;;;;;;5050193;28;20215;-81
2023/08/05 03:42:30;;;;;;;7.40;5.20;;;13.50;99.90;;;;;;5049486;28;20760;-80
2023/08/05 03:44:59;;;;;;;7.20;5.93;;;13.50;99.90;;;;;;5052747;28;20674;-80
2023/08/05 03:47:27;;;;;;;8.27;6.17;;;13.70;99.90;;;;;;5052622;28;20223;-80
2023/08/05 03:49:53;;;;;;;9.67;5.57;;;13.60;99.90;;;;;;5058416;28;20227;-80
2023/08/05 03:52:20;;;;;;;8.03;5.67;;;13.60;99.90;;;;;;5048447;28;20204;-80
2023/08/05 03:54:47;;;;;;;7.90;5.50;;;13.70;99.90;;;;;;5050521;28;20354;-80
2023/08/05 03:57:14;;;;;;;7.60;5.80;;;13.60;99.90;;;;;;5053497;28;20664;-79
2023/08/05 03:59:41;;;;;;;9.93;6.20;;;13.60;99.90;;;;;;5052084;28;20222;-80
2023/08/05 04:02:10;;;;;;;9.67;6.00;;;13.60;99.90;;;;;;5048230;28;20581;-80
2023/08/05 04:04:36;;;;;;;8.77;4.72;;;13.70;99.90;;;;;;5057970;28;20288;-80
2023/08/05 04:07:03;;;;;;;8.82;5.40;;;13.80;99.90;;;;;;5043305;28;20208;-80
2023/08/05 04:09:31;;;;;;;8.05;4.97;;;13.70;99.90;;;;;;5046886;28;20214;-81
2023/08/05 04:12:00;;;;;;;8.17;5.00;;;13.70;99.90;;;;;;5047343;28;20212;-80
2023/08/05 04:14:28;;;;;;;7.80;5.17;;;13.80;99.90;;;;;;5048448;28;20773;-80
2023/08/05 04:16:55;;;;;;;7.27;4.43;;;13.80;99.90;;;;;;5051002;28;20203;-80
2023/08/05 04:19:23;;;;;;;9.57;4.60;;;13.80;99.90;;;;;;5051767;28;20199;-79
2023/08/05 04:21:52;;;;;;;6.25;4.28;;;13.80;99.90;;;;;;5051269;28;20309;-80
2023/08/05 04:24:24;;;;;;;8.20;4.13;;;13.70;99.90;;;;;;5053664;28;20230;-79
2023/08/05 04:26:51;;;;;;;7.00;4.72;;;13.70;99.90;;;;;;5061270;28;20207;-79
2023/08/05 04:29:18;;;;;;;11.60;4.32;;;13.60;99.90;;;;;;5052782;28;20206;-80
2023/08/05 04:31:46;;;;;;;6.82;4.47;;;13.60;99.90;;;;;;5054483;28;20211;-79
2023/08/05 04:34:12;;;;;;;5.88;4.53;;;13.80;99.90;;;;;;5056678;28;20256;-80
2023/08/05 04:36:41;;;;;;;9.15;4.43;;;13.90;99.90;;;;;;5055000;28;20645;-80
2023/08/05 04:39:08;;;;;;;6.93;4.63;;;13.80;99.90;;;;;;5052205;28;20242;-79
2023/08/05 04:41:34;;;;;;;6.18;4.20;;;13.90;99.90;;;;;;5052739;28;20226;-80
2023/08/05 04:44:02;;;;;;;8.20;4.63;;;14.00;99.90;;;;;;5052870;28;20231;-80
2023/08/05 04:46:28;;;;;;;6.28;4.47;;;14.00;99.90;;;;;;5052076;28;20211;-80
2023/08/05 04:48:55;;;;;;;7.60;4.47;;;14.00;99.90;;;;;;5054886;28;20265;-79
2023/08/05 04:51:22;;;;;;;6.40;4.45;;;14.00;99.90;;;;;;5049516;28;20212;-80
2023/08/05 04:53:50;;;;;;;5.22;4.30;;;14.00;99.90;;;;;;5052345;28;20621;-80
2023/08/05 04:56:17;;;;;;;5.05;4.10;;;14.10;99.90;;;;;;5052543;28;20263;-80
2023/08/05 04:58:44;;;;;;;5.93;4.15;;;14.10;99.90;;;;;;5053391;28;20225;-79
2023/08/05 05:01:11;;;;;;;6.30;4.20;;;14.10;99.90;;;;;;5051196;28;20595;-80
2023/08/05 05:03:37;;;;;;;8.05;4.28;;;14.20;99.90;;;;;;5052499;28;20287;-80
2023/08/05 05:06:04;;;;;;;5.85;3.72;;;14.30;99.90;;;;;;5053185;28;20217;-80
2023/08/05 05:08:31;;;;;;;7.50;4.07;;;14.40;99.90;;;;;;5052985;28;20310;-81
2023/08/05 05:11:00;;;;;;;7.13;4.15;;;14.40;99.90;;;;;;5052285;28;20195;-80
2023/08/05 05:13:27;;;;;;;5.05;4.10;;;14.40;99.90;;;;;;5059204;28;20256;-81
2023/08/05 05:15:53;;;;;;;7.50;4.30;;;14.40;99.90;;;;;;5046871;28;20639;-80
2023/08/05 05:18:20;;;;;;;5.78;3.90;;;14.50;99.90;;;;;;5054816;28;20298;-80
2023/08/05 05:20:50;;;;;;;4.72;3.97;;;14.60;99.90;;;;;;5053739;28;20219;-80
2023/08/05 05:23:17;;;;;;;7.40;4.00;;;14.60;99.90;;;;;;5052226;28;20208;-80
2023/08/05 05:25:44;;;;;;;7.47;4.43;;;14.60;99.90;;;;;;5052284;28;20203;-80
2023/08/05 05:28:12;;;;;;;8.88;4.55;;;14.60;99.90;;;;;;5050096;28;20229;-80
2023/08/05 05:30:39;;;;;;;6.50;4.15;;;14.60;99.90;;;;;;5051948;28;20203;-79
2023/08/05 05:33:06;;;;;;;10.60;5.20;;;14.60;99.90;;;;;;5044063;28;20227;-80
2023/08/05 05:35:32;;;;;;;9.50;4.35;;;14.70;99.90;;;;;;5054533;28;20283;-80
2023/08/05 05:37:59;;;;;;;6.97;4.40;;;14.70;99.90;;;;;;5054814;28;20224;-79
2023/08/05 05:40:26;;;;;;;5.88;3.92;;;14.70;99.90;;;;;;5056305;28;20395;-80
2023/08/05 05:42:53;;;;;;;5.13;4.05;;;14.80;99.90;;;;;;5054122;28;20234;-81
2023/08/05 05:45:22;;;;;;;13.13;4.93;;;14.80;99.90;;;;;;5057917;28;20245;-81
2023/08/05 05:47:48;;;;;;;4.68;3.80;;;15.00;99.90;;;;;;5046507;28;20705;-80
2023/08/05 05:50:18;;;;;;;5.47;4.30;;;15.10;99.90;;;;;;5055245;28;20203;-80
2023/08/05 05:52:48;;;;;;;15.73;3.85;;;15.10;99.90;;;;;;5054651;28;20246;-82
2023/08/05 05:55:16;;;;;;;8.20;3.92;;;15.20;99.90;;;;;;5057227;28;20218;-80
2023/08/05 05:57:43;;;;;;;10.48;4.20;;;15.20;99.90;;;;;;5054360;28;20237;-80
2023/08/05 06:00:11;;;;;;;5.90;4.10;;;15.30;99.90;;;;;;5051523;28;20238;-80
2023/08/05 06:02:40;;;;;;;5.65;4.13;;;15.30;99.90;;;;;;5051552;28;20223;-81
2023/08/05 06:05:08;;;;;;;6.40;3.75;;;15.40;99.90;;;;;;5052273;28;20207;-80
2023/08/05 06:07:34;;;;;;;6.40;3.92;;;15.40;99.90;;;;;;5049005;28;20223;-81
2023/08/05 06:10:01;;;;;;;6.53;4.20;;;15.40;99.90;;;;;;5052837;28;20234;-80
2023/08/05 06:12:32;;;;;;;5.60;3.85;;;15.50;99.90;;;;;;5048809;28;20282;-79
2023/08/05 06:15:00;;;;;;;5.00;4.38;;;15.60;99.90;;;;;;5053030;28;20213;-80
2023/08/05 06:17:26;;;;;;;4.65;3.97;;;15.60;99.90;;;;;;5052420;28;20249;-79
2023/08/05 06:19:55;;;;;;;5.07;3.80;;;15.60;99.90;;;;;;5042192;28;20298;-79
2023/08/05 06:22:21;;;;;;;8.85;4.03;;;15.50;99.90;;;;;;5052005;28;20219;-80
2023/08/05 06:24:50;;;;;;;6.53;4.28;;;15.60;99.90;;;;;;5053168;28;20210;-80
2023/08/05 06:27:16;;;;;;;6.18;4.03;;;15.80;99.90;;;;;;5045393;28;20220;-79
2023/08/05 06:29:43;;;;;;;6.35;4.75;;;15.80;99.90;;;;;;5053106;28;20204;-79
2023/08/05 06:32:10;;;;;;;4.88;4.35;;;15.80;99.90;;;;;;5049137;28;20233;-80
2023/08/05 06:34:37;;;;;;;5.55;4.10;;;15.70;99.90;;;;;;5053532;28;20211;-80
2023/08/05 06:37:06;;;;;;;5.43;4.00;;;15.90;99.90;;;;;;5052255;28;20298;-80
2023/08/05 06:39:33;;;;;;;5.10;4.25;;;16.00;99.90;;;;;;5051811;28;20206;-81
2023/08/05 06:42:00;;;;;;;7.78;4.47;;;16.10;99.90;;;;;;5055761;28;20674;-81
2023/08/05 06:44:26;;;;;;;5.45;3.75;;;16.20;99.90;;;;;;5060035;28;20238;-80
2023/08/05 06:46:53;;;;;;;8.13;4.13;;;16.20;99.90;;;;;;5047045;28;20606;-80
2023/08/05 06:49:20;;;;;;;7.00;3.83;;;16.20;99.90;;;;;;5060249;28;20211;-79
2023/08/05 06:51:47;;;;;;;5.22;3.50;;;16.40;99.90;;;;;;5054102;28;20204;-80
2023/08/05 06:54:15;;;;;;;6.00;3.70;;;16.50;99.90;;;;;;5049168;28;20203;-80
2023/08/05 06:56:42;;;;;;;10.25;3.78;;;16.60;99.90;;;;;;5050877;28;20208;-79
2023/08/05 06:59:09;;;;;;;8.57;4.35;;;16.70;99.90;;;;;;5051490;28;20234;-79
2023/08/05 07:01:35;;;;;;;8.60;3.97;;;16.70;99.90;;;;;;5049309;28;20239;-79
2023/08/05 07:04:02;;;;;;;10.55;4.20;;;16.80;99.90;;;;;;5055049;28;20596;-79
2023/08/05 07:06:29;;;;;;;8.40;3.90;;;16.90;99.90;;;;;;5051773;28;20234;-80
2023/08/05 07:08:56;;;;;;;7.00;4.25;;;17.00;99.90;;;;;;5052449;28;20311;-80
2023/08/05 07:11:26;;;;;;;6.68;4.10;;;17.10;99.90;;;;;;5054687;28;20543;-79
2023/08/05 07:13:53;;;;;;;5.78;3.70;;;17.10;99.90;;;;;;5055241;28;20207;-79
2023/08/05 07:16:20;;;;;;;9.30;4.18;;;17.20;99.90;;;;;;5051386;28;20279;-79
2023/08/05 07:18:46;;;;;;;5.18;3.75;;;17.30;99.90;;;;;;5054559;28;20318;-79
2023/08/05 07:21:14;;;;;;;8.02;4.30;;;17.30;99.90;;;;;;5051749;28;20220;-80
2023/08/05 07:23:41;;;;;;;7.65;4.07;;;17.30;99.90;;;;;;5054917;28;20206;-79
2023/08/05 07:26:08;;;;;;;7.45;4.10;;;17.60;99.90;;;;;;5051753;28;20217;-80
2023/08/05 07:28:36;;;;;;;6.18;3.25;;;17.70;99.90;;;;;;5048811;28;20314;-79
2023/08/05 07:31:05;;;;;;;4.90;3.40;;;17.80;99.90;;;;;;5050933;28;20203;-80
2023/08/05 07:33:32;;;;;;;6.80;3.20;;;17.90;99.90;;;;;;5043050;28;20215;-80
2023/08/05 07:36:07;;;;;;;9.82;3.58;;;18.00;99.90;;;;;;5041966;28;20275;-80
2023/08/05 07:38:35;;;;;;;4.60;3.25;;;18.10;99.90;;;;;;5050380;28;20235;-80
2023/08/05 07:41:02;;;;;;;7.85;3.60;;;18.10;99.90;;;;;;5050400;28;20223;-79
2023/08/05 07:43:29;;;;;;;6.50;3.40;;;18.20;99.90;;;;;;5054554;28;20230;-80
2023/08/05 07:45:59;;;;;;;8.32;3.58;;;18.00;99.90;;;;;;5052811;28;20199;-80
2023/08/05 07:48:27;;;;;;;4.45;3.20;;;17.80;99.90;;;;;;5052252;28;20230;-80
2023/08/05 07:50:54;;;;;;;9.15;3.80;;;17.90;99.90;;;;;;5053069;28;20578;-79
2023/08/05 07:53:23;;;;;;;6.85;3.28;;;18.00;99.90;;;;;;5050155;28;20282;-79
2023/08/05 07:55:52;;;;;;;8.13;3.42;;;17.90;99.90;;;;;;5049809;28;20675;-80
2023/08/05 07:58:19;;;;;;;6.03;3.40;;;18.10;99.90;;;;;;5045084;28;20224;-80
2023/08/05 08:00:46;;;;;;;4.25;3.13;;;18.10;99.90;;;;;;5047665;28;20207;-79
2023/08/05 08:03:14;;;;;;;5.07;2.63;;;18.20;99.90;;;;;;5062707;28;20336;-79
2023/08/05 08:05:41;;;;;;;5.18;3.28;;;18.20;99.90;;;;;;5051978;28;20270;-80
2023/08/05 08:08:07;;;;;;;4.43;3.00;;;18.30;99.90;;;;;;5055236;28;20290;-79
2023/08/05 08:10:34;;;;;;;5.85;2.60;;;18.20;99.90;;;;;;5055050;28;20830;-79
2023/08/05 08:13:01;;;;;;;5.70;2.75;;;18.20;99.90;;;;;;5054554;28;20289;-80
2023/08/05 08:15:28;;;;;;;6.35;3.00;;;18.30;99.90;;;;;;5061704;28;20200;-80
2023/08/05 08:17:55;;;;;;;7.22;2.80;;;18.30;99.90;;;;;;5053508;28;20318;-79
2023/08/05 08:20:23;;;;;;;5.60;3.17;;;18.50;99.90;;;;;;5062073;28;20667;-79
2023/08/05 08:22:51;;;;;;;5.93;3.35;;;18.50;99.90;;;;;;5048532;28;20224;-79
2023/08/05 08:25:18;;;;;;;4.70;3.10;;;18.40;99.90;;;;;;5056482;28;20199;-78
2023/08/05 08:27:44;;;;;;;6.20;3.05;;;18.30;99.90;;;;;;5054649;28;20730;-79
2023/08/05 08:30:12;;;;;;;8.23;2.97;;;18.60;99.90;;;;;;5054084;28;20367;-79
2023/08/05 08:32:39;;;;;;;5.13;3.13;;;18.50;99.90;;;;;;5054292;28;20206;-79
2023/08/05 08:35:07;;;;;;;4.05;2.72;;;18.60;99.90;;;;;;5053954;28;20276;-79
2023/08/05 08:37:35;;;;;;;5.90;2.80;;;18.70;99.90;;;;;;5056377;28;20520;-79
2023/08/05 08:40:02;;;;;;;5.70;3.25;;;18.90;99.90;;;;;;5045292;28;20214;-79
2023/08/05 08:42:29;;;;;;;5.93;2.78;;;18.90;99.90;;;;;;5044608;28;20220;-80
2023/08/05 08:44:57;;;;;;;5.55;2.80;;;19.10;99.90;;;;;;5053431;28;20238;-80
2023/08/05 08:47:25;;;;;;;4.40;2.60;;;18.90;99.90;;;;;;5042766;28;20228;-79
2023/08/05 08:49:54;;;;;;;5.30;2.80;;;19.30;99.90;;;;;;5053019;28;20211;-78
2023/08/05 08:52:21;;;;;;;6.57;3.00;;;19.40;99.90;;;;;;5053611;28;20291;-79
2023/08/05 08:54:52;;;;;;;3.28;2.83;;;19.80;99.90;;;;;;5053822;28;20203;-79
2023/08/05 08:57:19;;;;;;;5.10;2.88;;;20.00;99.90;;;;;;5042416;28;20219;-79
2023/08/05 08:59:46;;;;;;;5.78;3.05;;;19.80;99.90;;;;;;5053589;28;20208;-79
2023/08/05 09:02:14;;;;;;;4.63;2.53;;;19.50;99.90;;;;;;5056145;28;20230;-79
2023/08/05 09:04:42;;;;;;;6.30;3.65;;;19.60;99.90;;;;;;5063101;28;20217;-79
2023/08/05 09:07:10;;;;;;;3.60;2.30;;;19.70;99.90;;;;;;5057996;28;20211;-79
2023/08/05 09:09:37;;;;;;;2.50;2.25;;;19.80;99.90;;;;;;5055739;28;20216;-81
2023/08/05 09:12:06;;;;;;;3.47;2.60;;;20.50;99.90;;;;;;5035937;28;20291;-80
2023/08/05 09:14:33;;;;;;;5.55;2.70;;;20.80;99.90;;;;;;5050892;28;20238;-80
2023/08/05 09:17:01;;;;;;;4.40;2.60;;;20.50;99.90;;;;;;5051715;28;20243;-80
2023/08/05 09:19:29;;;;;;;4.50;1.90;;;20.40;99.90;;;;;;5057189;28;20210;-79
2023/08/05 09:21:58;;;;;;;5.32;2.40;;;20.30;99.90;;;;;;5055588;28;20306;-80
2023/08/05 09:24:25;;;;;;;2.72;2.33;;;20.20;99.90;;;;;;5052545;28;20207;-80
2023/08/05 09:26:56;;;;;;;4.93;2.47;;;20.20;99.90;;;;;;5052035;28;20692;-79
2023/08/05 09:29:25;;;;;;;4.28;2.60;;;20.40;99.90;;;;;;5055868;28;20210;-80
2023/08/05 09:31:56;;;;;;;2.80;2.42;;;20.40;99.90;;;;;;5055696;28;20203;-80
2023/08/05 09:34:32;;;;;;;5.72;2.67;;;21.20;99.90;;;;;;5052882;28;20287;-80
2023/08/05 09:36:59;;;;;;;4.97;2.13;;;21.40;99.90;;;;;;5051245;28;20212;-80
2023/08/05 09:39:30;;;;;;;2.53;2.03;;;21.20;99.90;;;;;;5044559;28;20295;-80
2023/08/05 09:41:57;;;;;;;3.90;2.33;;;20.90;99.90;;;;;;5052585;28;20647;-79
2023/08/05 09:44:26;;;;;;;3.38;2.92;;;20.80;99.90;;;;;;5054009;28;20272;-79
2023/08/05 09:46:57;;;;;;;3.63;2.13;;;20.60;99.90;;;;;;5052622;28;20580;-81
2023/08/05 09:49:25;;;;;;;4.38;2.38;;;21.20;99.90;;;;;;5054887;28;20230;-80
2023/08/05 09:51:53;;;;;;;5.25;2.20;;;21.80;99.90;;;;;;5055050;28;20230;-80
2023/08/05 09:54:30;;;;;;;2.20;2.00;;;22.30;99.90;;;;;;5052725;28;20262;-80
2023/08/05 09:56:59;;;;;;;3.47;2.15;;;23.00;99.90;;;;;;5059196;28;20217;-80
2023/08/05 09:59:29;;;;;;;2.63;2.17;;;23.30;99.90;;;;;;5051404;28;20195;-80
2023/08/05 10:01:59;;;;;;;4.25;1.92;;;23.70;99.90;;;;;;5051039;28;20585;-80
2023/08/05 10:04:28;;;;;;;3.45;2.15;;;23.30;99.90;;;;;;5045981;28;20290;-80
2023/08/05 10:06:56;;;;;;;2.35;1.95;;;23.40;99.90;;;;;;5055528;28;20466;-80
2023/08/05 10:09:22;;;;;;;2.78;2.20;;;23.60;99.90;;;;;;5053485;28;20214;-80
2023/08/05 10:11:50;;;;;;;3.33;1.85;;;22.80;99.90;;;;;;5054436;28;20217;-80
2023/08/05 10:14:17;;;;;;;2.22;2.03;;;22.40;99.90;;;;;;5046923;28;20235;-80
2023/08/05 10:16:46;;;;;;;2.58;2.38;;;22.10;99.90;;;;;;5049416;28;20267;-79
2023/08/05 10:19:13;;;;;;;4.00;1.58;;;22.20;99.90;;;;;;5059438;28;20230;-80
2023/08/05 10:21:40;;;;;;;3.33;2.00;;;21.90;99.90;;;;;;5050843;28;20211;-80
2023/08/05 10:24:09;;;;;;;5.00;2.55;;;22.40;99.90;;;;;;5051390;28;20204;-80
2023/08/05 10:26:43;;;;;;;4.47;2.05;;;22.80;99.90;;;;;;5054021;28;20650;-80
2023/08/05 10:29:28;;;;;;;3.95;1.80;;;23.00;99.90;;;;;;5044568;28;20696;-79
2023/08/05 10:32:14;;;;;;;3.75;1.92;;;23.60;99.90;;;;;;5049783;28;20579;-80
2023/08/05 10:34:41;;;;;;;2.20;1.88;;;23.10;99.90;;;;;;5053781;28;20285;-80
2023/08/05 10:37:08;;;;;;;2.33;1.80;;;22.70;99.90;;;;;;5054377;28;20206;-80
2023/08/05 10:39:44;;;;;;;2.20;1.92;;;22.80;99.90;;;;;;5062058;28;20226;-80
2023/08/05 10:42:32;;;;;;;4.07;1.95;;;23.30;99.90;;;;;;5053512;28;20607;-80
2023/08/05 10:45:00;;;;;;;2.63;2.30;;;23.30;99.90;;;;;;5054686;28;20229;-80
2023/08/05 10:47:28;;;;;;;4.70;2.00;;;23.30;99.90;;;;;;5053941;28;20227;-79
2023/08/05 10:49:58;;;;;;;2.95;1.92;;;23.10;99.90;;;;;;5055299;28;20270;-81
2023/08/05 10:52:26;;;;;;;2.85;1.90;;;23.10;99.90;;;;;;5053442;28;20234;-80
2023/08/05 10:54:53;;;;;;;2.78;2.20;;;23.00;99.90;;;;;;5054608;28;20270;-80
2023/08/05 10:57:44;;;;;;;2.70;2.00;;;23.20;99.90;;;;;;5052161;28;20223;-80
2023/08/05 11:00:18;;;;;;;2.05;1.80;;;23.30;99.90;;;;;;5047255;28;20687;-79
2023/08/05 11:02:49;;;;;;;2.20;2.10;;;24.10;99.90;;;;;;5054168;28;20218;-80
2023/08/05 11:05:16;;;;;;;2.05;1.85;;;24.20;99.90;;;;;;5053743;28;20222;-80
2023/08/05 11:07:43;;;;;;;1.92;1.73;;;24.00;99.90;;;;;;5050457;28;20266;-80
2023/08/05 11:10:11;;;;;;;6.47;2.10;;;23.50;99.90;;;;;;5049947;28;20203;-78
2023/08/05 11:12:39;;;;;;;2.17;1.98;;;23.00;99.90;;;;;;5056589;28;20196;-78
2023/08/05 11:15:07;;;;;;;1.90;1.80;;;23.10;99.90;;;;;;5050888;28;20211;-78
2023/08/05 11:17:34;;;;;;;3.20;1.60;;;22.80;99.90;;;;;;5050290;28;20224;-79
2023/08/05 11:20:02;;;;;;;2.08;1.92;;;23.00;99.90;;;;;;5051373;28;20266;-79
2023/08/05 11:22:30;;;;;;;2.63;1.70;;;23.70;99.90;;;;;;5050519;28;20270;-79
2023/08/05 11:24:57;;;;;;;2.63;2.13;;;24.00;99.90;;;;;;5051493;28;20272;-80
2023/08/05 11:27:32;;;;;;;3.63;1.90;;;23.90;99.90;;;;;;5050441;28;20246;-79
2023/08/05 11:29:59;;;;;;;1.98;1.85;;;23.00;99.90;;;;;;5051276;28;20267;-80
2023/08/05 11:32:26;;;;;;;1.65;1.55;;;23.30;99.90;;;;;;5055203;28;20294;-78
2023/08/05 11:35:02;;;;;;;3.28;2.05;;;24.40;99.90;;;;;;5052527;28;20290;-79
2023/08/05 11:37:36;;;;;;;2.90;2.20;;;25.00;99.90;;;;;;5054855;28;20286;-79
2023/08/05 11:40:04;;;;;;;2.28;1.88;;;24.70;99.90;;;;;;5055350;28;20267;-78
2023/08/05 11:42:31;;;;;;;2.15;2.05;;;24.30;99.90;;;;;;5057317;28;20223;-79
2023/08/05 11:44:58;;;;;;;2.22;2.03;;;23.60;99.90;;;;;;5058417;28;20728;-79
2023/08/05 11:47:25;;;;;;;2.95;2.33;;;23.20;99.90;;;;;;5064991;28;20704;-79
2023/08/05 11:49:52;;;;;;;2.25;2.05;;;23.30;99.90;;;;;;5059618;28;20275;-79
2023/08/05 11:52:20;;;;;;;2.90;1.80;;;23.90;99.90;;;;;;5056510;28;20229;-79
2023/08/05 11:54:57;;;;;;;2.83;1.95;;;24.80;99.90;;;;;;5044246;28;20239;-80
2023/08/05 11:57:24;;;;;;;2.22;2.00;;;24.50;99.90;;;;;;5046838;28;20223;-79
2023/08/05 11:59:53;;;;;;;1.92;1.83;;;24.50;99.90;;;;;;5060295;28;20239;-79
2023/08/05 12:02:20;;;;;;;3.13;2.10;;;23.90;99.90;;;;;;5050520;28;20227;-78
2023/08/05 12:04:48;;;;;;;2.85;2.20;;;23.80;99.90;;;;;;5050664;28;20740;-79
2023/08/05 12:07:16;;;;;;;2.53;2.00;;;23.60;99.90;;;;;;5049950;28;20306;-80
2023/08/05 12:09:45;;;;;;;2.40;2.25;;;23.70;99.90;;;;;;5049573;28;20275;-79
2023/08/05 12:12:16;;;;;;;2.53;1.75;;;23.80;99.90;;;;;;5065148;28;20203;-80
2023/08/05 12:14:43;;;;;;;3.17;2.00;;;23.80;99.90;;;;;;5041088;28;20201;-79
2023/08/05 12:17:10;;;;;;;2.38;1.75;;;23.70;99.90;;;;;;5056385;28;20282;-79
2023/08/05 12:19:37;;;;;;;2.25;2.05;;;23.60;99.90;;;;;;5057214;28;20213;-79
2023/08/05 12:22:04;;;;;;;2.30;2.10;;;23.50;99.90;;;;;;5056162;28;20199;-80
2023/08/05 12:24:31;;;;;;;1.90;1.80;;;23.70;99.90;;;;;;5053194;28;20221;-78
2023/08/05 12:27:00;;;;;;;2.60;2.40;;;24.00;99.90;;;;;;5057498;28;20195;-80
2023/08/05 12:29:26;;;;;;;2.30;2.10;;;23.80;99.90;;;;;;5056360;28;20690;-80
2023/08/05 12:31:53;;;;;;;3.10;2.10;;;24.30;99.90;;;;;;5057429;28;20210;-79
2023/08/05 12:34:20;;;;;;;3.17;2.13;;;24.80;99.90;;;;;;5056705;28;20218;-79
2023/08/05 12:36:47;;;;;;;1.90;1.80;;;24.70;99.90;;;;;;5053533;28;20218;-78
2023/08/05 12:39:14;;;;;;;3.47;2.15;;;24.40;99.90;;;;;;5052246;28;20219;-79
2023/08/05 12:41:41;;;;;;;2.33;2.10;;;24.00;99.90;;;;;;5048637;28;20203;-80
2023/08/05 12:44:09;;;;;;;2.30;2.10;;;24.30;99.90;;;;;;5057138;28;20268;-79
2023/08/05 12:46:36;;;;;;;2.65;2.30;;;24.40;99.90;;;;;;5056997;28;20203;-81
2023/08/05 12:49:03;;;;;;;2.53;1.80;;;24.20;99.90;;;;;;5065281;28;20231;-79